createdAt,value
2019-05-23T00:00:54.120Z,15.46
2019-05-23T00:04:01.626Z,15.47
2019-05-23T00:06:52.328Z,15.45
2019-05-23T00:09:42.653Z,15.48
2019-05-23T00:12:33.204Z,15.44
2019-05-23T00:15:11.252Z,15.44
2019-05-23T00:17:43.683Z,15.44
2019-05-23T00:20:16.773Z,15.42
2019-05-23T00:22:49.147Z,15.46
2019-05-23T00:25:20.589Z,15.49
2019-05-23T00:27:54.199Z,15.49
2019-05-23T00:30:27.665Z,15.49
2019-05-23T00:33:00.585Z,15.57
2019-05-23T00:35:33.783Z,15.64
2019-05-23T00:38:06.045Z,15.59
2019-05-23T00:40:39.546Z,15.62
2019-05-23T00:43:12.822Z,15.75
2019-05-23T00:45:45.201Z,15.65
2019-05-23T00:48:17.574Z,15.62
2019-05-23T00:50:50.772Z,15.64
2019-05-23T00:53:22.531Z,15.67
2019-05-23T00:55:54.589Z,15.67
2019-05-23T00:58:26.862Z,15.64
2019-05-23T01:01:00.050Z,15.59
2019-05-23T01:03:32.284Z,15.56
2019-05-23T01:06:03.669Z,15.56
2019-05-23T01:08:35.530Z,15.60
2019-05-23T01:11:07.391Z,15.59
2019-05-23T01:13:40.378Z,15.59
2019-05-23T01:16:12.359Z,15.72
2019-05-23T01:18:43.684Z,15.64
2019-05-23T01:21:28.972Z,15.64
2019-05-23T01:24:05.324Z,15.71
2019-05-23T01:26:36.878Z,15.65
2019-05-23T01:29:09.300Z,15.61
2019-05-23T01:31:42.445Z,15.68
2019-05-23T01:34:15.024Z,15.73
2019-05-23T01:36:47.123Z,15.76
2019-05-23T01:39:19.313Z,15.80
2019-05-23T01:41:51.232Z,15.79
2019-05-23T01:44:24.203Z,15.68
2019-05-23T01:46:56.069Z,15.62
2019-05-23T01:49:28.948Z,15.63
2019-05-23T01:52:00.396Z,15.64
2019-05-23T01:54:32.156Z,15.69
2019-05-23T01:57:03.960Z,15.66
2019-05-23T01:59:35.875Z,15.66
2019-05-23T02:02:08.033Z,15.65
2019-05-23T02:04:40.924Z,15.62
2019-05-23T02:07:13.907Z,15.63
2019-05-23T02:09:46.296Z,15.66
2019-05-23T02:12:18.657Z,15.63
2019-05-23T02:14:50.099Z,15.65
2019-05-23T02:17:21.857Z,15.72
2019-05-23T02:19:55.067Z,15.73
2019-05-23T02:22:28.306Z,15.76
2019-05-23T02:25:00.006Z,15.76
2019-05-23T02:27:31.764Z,15.79
2019-05-23T02:30:05.780Z,15.78
2019-05-23T02:32:37.379Z,15.79
2019-05-23T02:35:10.762Z,15.84
2019-05-23T02:37:44.112Z,15.92
2019-05-23T02:40:23.150Z,15.95
2019-05-23T02:43:02.082Z,16.03
2019-05-23T02:45:51.543Z,16.14
2019-05-23T02:48:24.936Z,16.31
2019-05-23T02:51:01.049Z,16.42
2019-05-23T02:53:33.801Z,16.52
2019-05-23T02:56:08.808Z,16.60
2019-05-23T02:58:48.113Z,16.60
2019-05-23T03:01:36.922Z,16.68
2019-05-23T03:04:10.462Z,16.69
2019-05-23T03:06:41.985Z,16.68
2019-05-23T03:09:15.658Z,16.67
2019-05-23T03:11:50.015Z,16.65
2019-05-23T03:14:22.577Z,16.61
2019-05-23T03:16:54.530Z,16.65
2019-05-23T03:19:47.238Z,16.62
2019-05-23T03:22:31.839Z,16.68
2019-05-23T03:25:10.840Z,16.60
2019-05-23T03:27:44.650Z,16.65
2019-05-23T03:30:18.047Z,16.72
2019-05-23T03:32:51.828Z,16.71
2019-05-23T03:35:36.203Z,16.76
2019-05-23T03:38:09.113Z,17.00
2019-05-23T03:40:41.566Z,17.11
2019-05-23T03:43:13.618Z,17.26
2019-05-23T03:45:52.586Z,17.34
2019-05-23T03:48:24.823Z,17.41
2019-05-23T03:50:57.942Z,17.46
2019-05-23T03:53:30.823Z,17.49
2019-05-23T03:56:03.849Z,17.49
2019-05-23T03:58:35.751Z,17.65
2019-05-23T04:01:09.043Z,17.85
2019-05-23T04:03:42.682Z,18.11
2019-05-23T04:06:14.506Z,18.27
2019-05-23T04:08:46.885Z,18.18
2019-05-23T04:11:19.029Z,18.08
2019-05-23T04:13:50.405Z,18.04
2019-05-23T04:16:23.186Z,18.07
2019-05-23T04:18:54.843Z,18.24
2019-05-23T04:21:27.409Z,18.55
2019-05-23T04:23:59.058Z,18.93
2019-05-23T04:26:31.115Z,19.22
2019-05-23T04:29:03.484Z,19.18
2019-05-23T04:31:35.064Z,19.32
2019-05-23T04:34:06.399Z,19.31
2019-05-23T04:36:38.057Z,19.38
2019-05-23T04:39:10.012Z,19.39
2019-05-23T04:41:42.026Z,19.69
2019-05-23T04:44:15.377Z,20.10
2019-05-23T04:46:46.944Z,20.98
2019-05-23T04:49:19.709Z,22.21
2019-05-23T04:51:51.678Z,22.63
2019-05-23T04:54:23.357Z,22.60
2019-05-23T04:56:56.844Z,22.49
2019-05-23T04:59:28.380Z,22.00
2019-05-23T05:02:00.242Z,21.79
2019-05-23T05:04:31.889Z,22.37
2019-05-23T05:07:04.910Z,22.45
2019-05-23T05:09:38.173Z,22.74
2019-05-23T05:12:10.250Z,23.73
2019-05-23T05:14:41.804Z,24.73
2019-05-23T05:17:13.708Z,25.37
2019-05-23T05:19:44.995Z,25.61
2019-05-23T05:22:16.958Z,26.67
2019-05-23T05:24:48.620Z,28.13
2019-05-23T05:27:21.409Z,26.95
2019-05-23T05:29:53.154Z,25.43
2019-05-23T05:32:41.461Z,24.50
2019-05-23T05:34:58.109Z,24.31
2019-05-23T05:37:30.477Z,24.33
2019-05-23T05:40:02.126Z,25.11
2019-05-23T05:42:34.819Z,25.94
2019-05-23T05:45:09.220Z,25.37
2019-05-23T05:47:47.308Z,25.29
2019-05-23T05:50:18.791Z,25.82
2019-05-23T05:52:50.445Z,26.65
2019-05-23T05:55:21.788Z,28.59
2019-05-23T05:57:59.072Z,28.95
2019-05-23T06:00:52.667Z,28.94
2019-05-23T06:03:24.096Z,29.53
2019-05-23T06:05:56.983Z,29.72
2019-05-23T06:08:31.621Z,31.25
2019-05-23T06:11:02.953Z,32.02
2019-05-23T06:13:35.257Z,32.77
2019-05-23T06:16:06.776Z,33.36
2019-05-23T06:18:51.346Z,33.69
2019-05-23T06:21:24.413Z,33.72
2019-05-23T06:23:55.391Z,34.88
2019-05-23T06:26:26.511Z,35.98
2019-05-23T06:28:58.982Z,36.49
2019-05-23T06:31:34.129Z,35.63
2019-05-23T06:34:05.774Z,33.12
2019-05-23T06:36:37.223Z,30.92
2019-05-23T06:39:10.729Z,32.12
2019-05-23T06:41:42.103Z,31.24
2019-05-23T06:44:14.131Z,31.35
2019-05-23T06:46:46.191Z,30.95
2019-05-23T06:49:19.443Z,30.30
2019-05-23T06:51:50.737Z,32.19
2019-05-23T06:54:22.897Z,34.05
2019-05-23T06:56:54.989Z,34.43
2019-05-23T06:59:27.250Z,33.16
2019-05-23T07:02:03.069Z,32.62
2019-05-23T07:04:34.436Z,35.39
2019-05-23T07:07:07.545Z,35.34
2019-05-23T07:09:38.877Z,36.76
2019-05-23T07:12:12.583Z,37.19
2019-05-23T07:14:44.239Z,36.85
2019-05-23T07:17:16.685Z,37.64
2019-05-23T07:19:48.239Z,37.37
2019-05-23T07:22:21.764Z,38.48
2019-05-23T07:24:58.037Z,37.54
2019-05-23T07:27:33.263Z,37.03
2019-05-23T07:30:09.120Z,37.92
2019-05-23T07:32:40.498Z,38.70
2019-05-23T07:35:12.018Z,39.49
2019-05-23T07:37:43.470Z,37.60
2019-05-23T07:40:15.465Z,36.02
2019-05-23T07:42:46.884Z,37.70
2019-05-23T07:45:39.961Z,37.86
2019-05-23T07:48:13.027Z,39.14
2019-05-23T07:50:53.489Z,39.67
2019-05-23T07:53:26.693Z,40.57
2019-05-23T07:56:00.080Z,41.34
2019-05-23T07:58:32.342Z,41.13
2019-05-23T08:01:07.849Z,42.07
2019-05-23T08:03:41.086Z,42.52
2019-05-23T08:06:13.167Z,42.38
2019-05-23T08:08:49.819Z,39.75
2019-05-23T08:11:22.907Z,37.31
2019-05-23T08:13:54.577Z,38.18
2019-05-23T08:16:26.319Z,37.75
2019-05-23T08:18:57.687Z,38.07
2019-05-23T08:21:50.768Z,37.84
2019-05-23T08:24:22.081Z,38.21
2019-05-23T08:26:54.963Z,38.13
2019-05-23T08:29:27.075Z,38.80
2019-05-23T08:32:01.315Z,38.71
2019-05-23T08:34:44.051Z,36.64
2019-05-23T08:37:19.502Z,34.94
2019-05-23T08:39:51.791Z,36.84
2019-05-23T08:42:24.150Z,38.31
2019-05-23T08:44:56.112Z,39.42
2019-05-23T08:47:31.114Z,41.12
2019-05-23T08:50:03.667Z,41.78
2019-05-23T08:52:35.173Z,42.04
2019-05-23T08:55:15.797Z,41.81
2019-05-23T08:57:49.685Z,42.77
2019-05-23T09:00:20.996Z,42.36
2019-05-23T09:02:58.047Z,41.56
2019-05-23T09:05:28.805Z,41.50
2019-05-23T09:08:00.780Z,40.59
2019-05-23T09:10:39.672Z,41.32
2019-05-23T09:13:12.172Z,41.18
2019-05-23T09:15:43.038Z,40.99
2019-05-23T09:18:14.822Z,41.08
2019-05-23T09:20:46.146Z,42.16
2019-05-23T09:23:17.558Z,42.45
2019-05-23T09:25:52.130Z,42.63
2019-05-23T09:28:23.942Z,41.65
2019-05-23T09:30:55.841Z,39.64
2019-05-23T09:33:29.516Z,38.09
2019-05-23T09:36:00.575Z,36.73
2019-05-23T09:38:31.887Z,35.11
2019-05-23T09:41:03.450Z,33.96
2019-05-23T09:43:35.204Z,34.69
2019-05-23T09:46:06.546Z,35.60
2019-05-23T09:48:37.997Z,35.38
2019-05-23T09:51:09.766Z,34.14
2019-05-23T09:53:46.908Z,32.95
2019-05-23T09:56:14.440Z,31.87
2019-05-23T09:58:46.052Z,31.39
2019-05-23T10:01:18.016Z,31.67
2019-05-23T10:03:49.580Z,31.27
2019-05-23T10:06:21.964Z,30.44
2019-05-23T10:08:53.603Z,29.78
2019-05-23T10:11:24.947Z,29.22
2019-05-23T10:13:56.287Z,29.09
2019-05-23T10:16:27.846Z,28.63
2019-05-23T10:19:01.448Z,28.30
2019-05-23T10:21:32.455Z,28.02
2019-05-23T10:24:04.813Z,27.84
2019-05-23T10:26:36.104Z,27.56
2019-05-23T10:29:07.768Z,27.28
2019-05-23T10:31:39.318Z,27.04
2019-05-23T10:34:11.547Z,26.96
2019-05-23T10:36:43.034Z,26.90
2019-05-23T10:39:14.705Z,26.93
2019-05-23T10:41:46.249Z,26.86
2019-05-23T10:44:18.207Z,26.79
2019-05-23T10:46:50.273Z,26.71
2019-05-23T10:49:21.844Z,26.73
2019-05-23T10:51:53.616Z,26.59
2019-05-23T10:54:25.128Z,26.52
2019-05-23T10:56:56.479Z,26.63
2019-05-23T10:59:28.421Z,26.73
2019-05-23T11:02:00.196Z,26.76
2019-05-23T11:04:32.161Z,26.93
2019-05-23T11:07:03.771Z,27.07
2019-05-23T11:09:38.268Z,27.04
2019-05-23T11:12:09.458Z,27.28
2019-05-23T11:14:41.142Z,27.49
2019-05-23T11:17:12.592Z,27.68
2019-05-23T11:19:44.530Z,27.77
2019-05-23T11:22:15.905Z,28.11
2019-05-23T11:24:47.457Z,28.21
2019-05-23T11:27:19.322Z,27.97
2019-05-23T11:29:51.066Z,28.14
2019-05-23T11:32:23.401Z,28.42
2019-05-23T11:34:55.198Z,28.94
2019-05-23T11:37:26.892Z,28.96
2019-05-23T11:39:58.403Z,29.08
2019-05-23T11:42:29.652Z,29.18
2019-05-23T11:45:01.212Z,28.65
2019-05-23T11:47:32.867Z,28.64
2019-05-23T11:50:07.528Z,28.75
2019-05-23T11:52:39.750Z,28.24
2019-05-23T11:55:11.533Z,28.33
2019-05-23T11:57:43.211Z,28.02
2019-05-23T12:00:19.091Z,28.18
2019-05-23T12:02:51.293Z,28.36
2019-05-23T12:05:30.123Z,27.98
2019-05-23T12:08:01.769Z,27.08
2019-05-23T12:10:34.760Z,26.69
2019-05-23T12:13:06.858Z,26.46
2019-05-23T12:15:40.152Z,26.54
2019-05-23T12:18:11.583Z,26.48
2019-05-23T12:20:43.545Z,25.48
2019-05-23T12:23:14.885Z,26.15
2019-05-23T12:25:46.917Z,26.55
2019-05-23T12:28:18.495Z,26.52
2019-05-23T12:30:49.841Z,26.50
2019-05-23T12:33:21.243Z,26.15
2019-05-23T12:35:53.213Z,26.60
2019-05-23T12:38:24.827Z,26.83
2019-05-23T12:40:56.270Z,26.91
2019-05-23T12:43:27.715Z,26.92
2019-05-23T12:45:59.286Z,26.48
2019-05-23T12:48:38.197Z,26.78
2019-05-23T12:51:14.723Z,26.65
2019-05-23T12:53:46.126Z,26.28
2019-05-23T12:56:17.661Z,25.79
2019-05-23T12:58:49.476Z,25.56
2019-05-23T13:01:21.964Z,25.42
2019-05-23T13:03:53.772Z,25.51
2019-05-23T13:06:25.213Z,25.20
2019-05-23T13:08:56.958Z,25.46
2019-05-23T13:11:28.859Z,25.55
2019-05-23T13:14:00.179Z,25.86
2019-05-23T13:16:32.036Z,26.04
2019-05-23T13:19:03.716Z,25.98
2019-05-23T13:21:35.556Z,25.93
2019-05-23T13:24:07.218Z,26.14
2019-05-23T13:26:38.981Z,26.23
2019-05-23T13:29:10.736Z,26.17
2019-05-23T13:31:43.118Z,26.03
2019-05-23T13:34:14.653Z,25.58
2019-05-23T13:36:46.505Z,25.43
2019-05-23T13:39:18.163Z,25.49
2019-05-23T13:41:49.701Z,25.63
2019-05-23T13:44:32.702Z,25.63
2019-05-23T13:46:54.308Z,25.60
2019-05-23T13:49:26.382Z,25.59
2019-05-23T13:51:57.945Z,25.46
2019-05-23T13:54:29.822Z,25.15
2019-05-23T13:57:01.821Z,24.97
2019-05-23T13:59:34.592Z,24.92
2019-05-23T14:02:09.035Z,24.88
2019-05-23T14:11:27.180Z,25.07
2019-05-23T14:14:01.575Z,24.69
2019-05-23T14:16:43.725Z,24.74
2019-05-23T14:19:20.073Z,24.75
2019-05-23T14:21:52.150Z,24.73
2019-05-23T14:24:23.884Z,24.61
2019-05-23T14:26:57.593Z,24.49
2019-05-23T14:29:33.168Z,24.36
2019-05-23T14:32:22.154Z,24.08
2019-05-23T14:34:55.802Z,24.08
2019-05-23T14:37:33.986Z,23.95
2019-05-23T14:40:18.042Z,23.87
2019-05-23T14:42:59.661Z,23.72
2019-05-23T14:45:49.144Z,23.83
2019-05-23T14:48:26.214Z,23.94
2019-05-23T14:51:16.693Z,23.86
2019-05-23T14:53:57.597Z,23.76
2019-05-23T14:56:36.215Z,23.72
2019-05-23T14:59:09.028Z,23.63
2019-05-23T15:01:50.671Z,23.47
2019-05-23T15:04:27.655Z,23.41
2019-05-23T15:07:01.643Z,23.50
2019-05-23T15:09:34.040Z,23.55
2019-05-23T15:12:08.053Z,23.56
2019-05-23T15:14:40.990Z,23.67
2019-05-23T15:17:13.496Z,23.83
2019-05-23T15:19:48.890Z,23.89
2019-05-23T15:22:25.524Z,23.87
2019-05-23T15:24:58.055Z,24.01
2019-05-23T15:27:33.549Z,23.82
2019-05-23T15:30:08.025Z,23.76
2019-05-23T15:32:40.228Z,23.73
2019-05-23T15:35:14.723Z,23.62
2019-05-23T15:37:59.387Z,23.72
2019-05-23T15:40:28.402Z,23.81
2019-05-23T15:43:00.508Z,23.89
2019-05-23T15:45:35.799Z,23.84
2019-05-23T15:48:10.478Z,23.81
2019-05-23T15:50:49.560Z,23.74
2019-05-23T15:53:26.788Z,23.72
2019-05-23T15:56:26.784Z,23.63
2019-05-23T15:58:46.586Z,23.51
2019-05-23T16:01:20.914Z,23.30
2019-05-23T16:04:08.432Z,23.16
2019-05-23T16:06:41.620Z,23.08
2019-05-23T16:09:28.745Z,22.81
2019-05-23T16:11:56.155Z,22.63
2019-05-23T16:14:31.917Z,22.56
2019-05-23T16:17:06.005Z,22.55
2019-05-23T16:19:40.443Z,22.50
2019-05-23T16:22:13.086Z,22.45
2019-05-23T16:27:43.679Z,22.30
2019-05-23T16:30:25.766Z,22.27
2019-05-23T16:33:10.202Z,22.22
2019-05-23T16:35:51.935Z,22.14
2019-05-23T16:38:27.553Z,22.05
2019-05-23T16:41:11.462Z,21.96
2019-05-23T16:43:45.439Z,21.88
2019-05-23T16:46:17.904Z,21.75
2019-05-23T16:48:51.437Z,21.67
2019-05-23T16:51:24.062Z,21.59
2019-05-23T16:54:06.541Z,21.53
2019-05-23T16:56:57.605Z,21.45
2019-05-23T17:02:28.958Z,21.24
2019-05-23T17:05:09.798Z,21.14
2019-05-23T17:07:57.607Z,20.98
2019-05-23T17:10:39.246Z,20.89
2019-05-23T17:13:28.699Z,20.83
2019-05-23T17:16:18.372Z,20.70
2019-05-23T17:18:52.621Z,20.58
2019-05-23T17:21:43.218Z,20.47
2019-05-23T17:24:33.599Z,20.38
2019-05-23T17:27:27.301Z,20.30
2019-05-23T17:30:08.979Z,20.18
2019-05-23T17:32:52.627Z,20.06
2019-05-23T17:38:28.323Z,19.87
2019-05-23T17:41:03.203Z,19.76
2019-05-23T17:43:40.286Z,19.69
2019-05-23T17:46:12.986Z,19.61
2019-05-23T17:48:47.464Z,19.53
2019-05-23T17:51:27.141Z,19.46
2019-05-23T17:54:00.461Z,19.40
2019-05-23T17:56:48.279Z,19.37
2019-05-23T17:59:17.144Z,19.33
2019-05-23T18:02:09.752Z,19.28
2019-05-23T18:04:52.003Z,19.23
2019-05-23T18:07:23.308Z,19.15
2019-05-23T18:09:57.573Z,19.08
2019-05-23T18:12:32.410Z,19.02
2019-05-23T18:15:10.988Z,18.96
2019-05-23T18:17:43.831Z,18.94
2019-05-23T18:20:16.586Z,18.88
2019-05-23T18:22:55.126Z,18.85
2019-05-23T18:25:29.672Z,18.82
2019-05-23T18:28:06.929Z,18.79
2019-05-23T18:30:59.256Z,18.78
2019-05-23T18:33:32.646Z,18.75
2019-05-23T18:36:12.774Z,18.70
2019-05-23T18:38:47.939Z,18.67
2019-05-23T18:41:20.805Z,18.61
2019-05-23T18:44:06.267Z,18.56
2019-05-23T18:46:44.041Z,18.52
2019-05-23T18:49:18.665Z,18.51
2019-05-23T18:51:58.835Z,18.48
2019-05-23T18:54:31.469Z,18.45
2019-05-23T18:57:13.173Z,18.40
2019-05-23T18:59:51.219Z,18.35
2019-05-23T19:02:24.491Z,18.31
2019-05-23T19:04:56.811Z,18.28
2019-05-23T19:07:39.802Z,18.26
2019-05-23T19:10:20.621Z,18.23
2019-05-23T19:12:59.015Z,18.15
2019-05-23T19:15:33.758Z,18.10
2019-05-23T19:18:08.367Z,18.06
2019-05-23T19:20:40.933Z,18.02
2019-05-23T19:23:15.047Z,18.03
2019-05-23T19:25:47.835Z,17.96
2019-05-23T19:28:21.771Z,17.92
2019-05-23T19:30:54.458Z,17.88
2019-05-23T19:33:26.586Z,17.85
2019-05-23T19:36:01.142Z,17.80
2019-05-23T19:38:35.130Z,17.76
2019-05-23T19:41:09.359Z,17.74
2019-05-23T19:44:01.515Z,17.70
2019-05-23T19:46:27.130Z,17.68
2019-05-23T19:49:05.993Z,17.60
2019-05-23T19:51:38.896Z,17.59
2019-05-23T19:54:16.907Z,17.60
2019-05-23T19:56:52.576Z,17.63
2019-05-23T19:59:27.082Z,17.58
2019-05-23T20:02:20.934Z,17.53
2019-05-23T20:05:06.552Z,17.52
2019-05-23T20:07:46.827Z,17.49
2019-05-23T20:10:29.318Z,17.50
2019-05-23T20:13:03.431Z,17.49
2019-05-23T20:15:46.647Z,17.46
2019-05-23T20:18:27.326Z,17.44
2019-05-23T20:21:00.513Z,17.40
2019-05-23T20:23:34.344Z,17.34
2019-05-23T20:26:08.241Z,17.34
2019-05-23T20:29:22.142Z,17.30
2019-05-23T20:31:55.327Z,17.25
2019-05-23T20:34:31.024Z,17.22
2019-05-23T20:37:03.771Z,17.19
2019-05-23T20:39:36.666Z,17.18
2019-05-23T20:42:30.559Z,17.16
2019-05-23T20:45:03.351Z,17.14
2019-05-23T20:47:41.094Z,17.05
2019-05-23T20:50:14.846Z,17.05
2019-05-23T20:52:47.493Z,17.02
2019-05-23T20:55:20.174Z,16.98
2019-05-23T20:57:52.967Z,16.95
2019-05-23T21:00:35.775Z,16.91
2019-05-23T21:03:10.289Z,16.90
2019-05-23T21:05:42.455Z,16.86
2019-05-23T21:08:15.029Z,16.84
2019-05-23T21:10:48.952Z,16.83
2019-05-23T21:13:21.161Z,16.77
2019-05-23T21:15:53.496Z,16.73
2019-05-23T21:18:25.952Z,16.70
2019-05-23T21:20:58.324Z,16.69
2019-05-23T21:23:31.000Z,16.71
2019-05-23T21:26:05.015Z,16.69
2019-05-23T21:28:37.689Z,16.67
2019-05-23T21:31:11.497Z,16.63
2019-05-23T21:33:44.998Z,16.60
2019-05-23T21:36:17.060Z,16.58
2019-05-23T21:38:49.733Z,16.53
2019-05-23T21:41:21.908Z,16.53
2019-05-23T21:43:55.713Z,16.50
2019-05-23T21:46:27.979Z,16.45
2019-05-23T21:49:01.471Z,16.42
2019-05-23T21:51:34.672Z,16.37
2019-05-23T21:54:06.953Z,16.37
2019-05-23T21:56:39.518Z,16.30
2019-05-23T21:59:11.998Z,16.28
2019-05-23T22:01:46.105Z,16.26
2019-05-23T22:04:29.339Z,16.24
2019-05-23T22:07:01.934Z,16.24
2019-05-23T22:09:34.686Z,16.22
2019-05-23T22:12:06.856Z,16.20
2019-05-23T22:14:39.738Z,16.19
2019-05-23T22:17:12.315Z,16.16
2019-05-23T22:19:44.688Z,16.14
2019-05-23T22:22:17.194Z,16.11
2019-05-23T22:24:49.842Z,16.09
2019-05-23T22:27:22.419Z,16.10
2019-05-23T22:29:54.991Z,16.03
2019-05-23T22:32:28.192Z,16.03
2019-05-23T22:35:01.994Z,16.05
2019-05-23T22:37:34.575Z,16.04
2019-05-23T22:40:07.040Z,15.99
2019-05-23T22:42:39.367Z,15.95
2019-05-23T22:45:13.215Z,15.91
2019-05-23T22:47:45.289Z,15.90
2019-05-23T22:50:17.915Z,15.83
2019-05-23T22:52:50.154Z,15.79
2019-05-23T22:55:22.617Z,15.76
2019-05-23T22:57:55.199Z,15.74
2019-05-23T23:00:36.011Z,15.72
2019-05-23T23:03:08.432Z,15.69
2019-05-23T23:05:40.695Z,15.69
2019-05-23T23:08:13.191Z,15.68
2019-05-23T23:10:45.751Z,15.65
2019-05-23T23:13:18.330Z,15.66
2019-05-23T23:15:50.910Z,15.68
2019-05-23T23:18:23.387Z,15.62
2019-05-23T23:20:55.867Z,15.58
2019-05-23T23:23:28.225Z,15.53
2019-05-23T23:26:01.447Z,15.50
2019-05-23T23:28:37.171Z,15.47
2019-05-23T23:31:09.740Z,15.45
2019-05-23T23:33:41.921Z,15.45
2019-05-23T23:36:18.892Z,15.47
2019-05-23T23:38:52.706Z,15.45
2019-05-23T23:41:25.173Z,15.44
2019-05-23T23:43:59.778Z,15.44
2019-05-23T23:46:49.503Z,15.42
2019-05-23T23:49:39.559Z,15.42
2019-05-23T23:52:29.642Z,15.40
2019-05-23T23:55:19.839Z,15.39
2019-05-23T23:58:00.195Z,15.36
